sensor_id;sensor_type;location;lat;lon;timestamp;pressure;altitude;pressure_sealevel;temperature;humidity
6144;BME280;3103;49.492;8.474;2023-04-28T00:00:31;100348.50;;;14.41;58.43
6144;BME280;3103;49.492;8.474;2023-04-28T00:02:58;100343.63;;;14.43;59.03
6144;BME280;3103;49.492;8.474;2023-04-28T00:05:25;100339.06;;;14.49;61.37
6144;BME280;3103;49.492;8.474;2023-04-28T00:07:52;100334.72;;;14.38;61.71
6144;BME280;3103;49.492;8.474;2023-04-28T00:10:19;100339.53;;;14.25;61.62
6144;BME280;3103;49.492;8.474;2023-04-28T00:12:46;100333.34;;;14.40;61.42
6144;BME280;3103;49.492;8.474;2023-04-28T00:15:12;100327.59;;;14.16;60.78
6144;BME280;3103;49.492;8.474;2023-04-28T00:17:39;100323.09;;;14.37;62.78
6144;BME280;3103;49.492;8.474;2023-04-28T00:20:06;100310.09;;;14.39;63.05
6144;BME280;3103;49.492;8.474;2023-04-28T00:22:34;100297.06;;;14.21;64.44
6144;BME280;3103;49.492;8.474;2023-04-28T00:25:01;100295.22;;;14.32;61.97
6144;BME280;3103;49.492;8.474;2023-04-28T00:27:32;100295.50;;;14.40;61.79
6144;BME280;3103;49.492;8.474;2023-04-28T00:29:58;100291.69;;;14.26;63.48
6144;BME280;3103;49.492;8.474;2023-04-28T00:32:25;100299.00;;;14.31;63.97
6144;BME280;3103;49.492;8.474;2023-04-28T00:34:52;100282.22;;;14.18;65.30
6144;BME280;3103;49.492;8.474;2023-04-28T00:37:19;100278.47;;;14.24;66.26
6144;BME280;3103;49.492;8.474;2023-04-28T00:39:46;100271.44;;;14.23;67.03
6144;BME280;3103;49.492;8.474;2023-04-28T00:42:13;100277.09;;;14.17;68.54
6144;BME280;3103;49.492;8.474;2023-04-28T00:44:40;100271.16;;;14.25;67.81
6144;BME280;3103;49.492;8.474;2023-04-28T00:47:07;100273.59;;;14.26;67.19
6144;BME280;3103;49.492;8.474;2023-04-28T00:49:35;100259.25;;;14.21;67.38
6144;BME280;3103;49.492;8.474;2023-04-28T00:52:04;100264.66;;;14.11;67.97
6144;BME280;3103;49.492;8.474;2023-04-28T00:54:32;100258.72;;;14.09;69.14
6144;BME280;3103;49.492;8.474;2023-04-28T00:57:00;100255.75;;;14.20;67.15
6144;BME280;3103;49.492;8.474;2023-04-28T00:59:29;100249.25;;;14.21;66.81
6144;BME280;3103;49.492;8.474;2023-04-28T01:01:56;100242.22;;;14.10;67.38
6144;BME280;3103;49.492;8.474;2023-04-28T01:04:23;100243.59;;;14.13;68.20
6144;BME280;3103;49.492;8.474;2023-04-28T01:06:51;100233.00;;;14.06;68.49
6144;BME280;3103;49.492;8.474;2023-04-28T01:09:19;100233.81;;;14.02;68.28
6144;BME280;3103;49.492;8.474;2023-04-28T01:11:46;100223.56;;;13.99;67.55
6144;BME280;3103;49.492;8.474;2023-04-28T01:14:28;100230.59;;;14.05;67.74
6144;BME280;3103;49.492;8.474;2023-04-28T01:16:55;100226.53;;;14.07;66.77
6144;BME280;3103;49.492;8.474;2023-04-28T01:19:22;100221.97;;;14.13;66.89
6144;BME280;3103;49.492;8.474;2023-04-28T01:21:50;100220.06;;;14.13;68.26
6144;BME280;3103;49.492;8.474;2023-04-28T01:24:19;100216.31;;;14.24;70.85
6144;BME280;3103;49.492;8.474;2023-04-28T01:26:46;100223.59;;;14.19;70.14
6144;BME280;3103;49.492;8.474;2023-04-28T01:29:14;100225.22;;;14.20;68.03
6144;BME280;3103;49.492;8.474;2023-04-28T01:31:41;100231.44;;;14.25;67.45
6144;BME280;3103;49.492;8.474;2023-04-28T01:34:08;100221.19;;;14.22;67.59
6144;BME280;3103;49.492;8.474;2023-04-28T01:36:35;100221.41;;;14.21;69.84
6144;BME280;3103;49.492;8.474;2023-04-28T01:39:03;100226.03;;;14.15;71.56
6144;BME280;3103;49.492;8.474;2023-04-28T01:41:32;100231.16;;;14.12;69.85
6144;BME280;3103;49.492;8.474;2023-04-28T01:44:03;100229.50;;;14.06;69.19
6144;BME280;3103;49.492;8.474;2023-04-28T01:46:31;100228.72;;;14.15;68.75
6144;BME280;3103;49.492;8.474;2023-04-28T01:48:59;100230.34;;;14.16;68.34
6144;BME280;3103;49.492;8.474;2023-04-28T01:51:25;100226.28;;;14.09;66.30
6144;BME280;3103;49.492;8.474;2023-04-28T01:53:52;100237.34;;;14.07;66.54
6144;BME280;3103;49.492;8.474;2023-04-28T01:56:19;100235.44;;;13.98;67.55
6144;BME280;3103;49.492;8.474;2023-04-28T01:58:46;100234.63;;;13.97;66.79
6144;BME280;3103;49.492;8.474;2023-04-28T02:01:13;100237.34;;;14.07;66.27
6144;BME280;3103;49.492;8.474;2023-04-28T02:03:41;100229.22;;;14.02;68.44
6144;BME280;3103;49.492;8.474;2023-04-28T02:06:07;100234.09;;;14.05;69.81
6144;BME280;3103;49.492;8.474;2023-04-28T02:08:34;100223.00;;;13.91;72.44
6144;BME280;3103;49.492;8.474;2023-04-28T02:11:01;100216.78;;;13.86;73.83
6144;BME280;3103;49.492;8.474;2023-04-28T02:13:29;100233.22;;;13.74;73.73
6144;BME280;3103;49.492;8.474;2023-04-28T02:15:59;100234.03;;;13.75;73.16
6144;BME280;3103;49.492;8.474;2023-04-28T02:18:27;100226.75;;;13.80;72.89
6144;BME280;3103;49.492;8.474;2023-04-28T02:21:07;100226.41;;;13.61;73.53
6144;BME280;3103;49.492;8.474;2023-04-28T02:23:34;100228.63;;;13.70;74.60
6144;BME280;3103;49.492;8.474;2023-04-28T02:26:04;100226.94;;;13.63;74.88
6144;BME280;3103;49.492;8.474;2023-04-28T02:28:31;100235.31;;;13.62;75.27
6144;BME280;3103;49.492;8.474;2023-04-28T02:31:09;100235.28;;;13.52;75.40
6144;BME280;3103;49.492;8.474;2023-04-28T02:33:37;100238.34;;;13.76;74.91
6144;BME280;3103;49.492;8.474;2023-04-28T02:36:05;100225.63;;;13.66;74.94
6144;BME280;3103;49.492;8.474;2023-04-28T02:38:32;100227.53;;;13.76;73.35
6144;BME280;3103;49.492;8.474;2023-04-28T02:41:04;100227.56;;;13.81;73.95
6144;BME280;3103;49.492;8.474;2023-04-28T02:43:31;100226.13;;;13.63;73.48
6144;BME280;3103;49.492;8.474;2023-04-28T02:45:58;100242.34;;;13.63;73.61
6144;BME280;3103;49.492;8.474;2023-04-28T02:48:26;100238.75;;;13.47;73.86
6144;BME280;3103;49.492;8.474;2023-04-28T02:50:52;100233.56;;;13.30;73.79
6144;BME280;3103;49.492;8.474;2023-04-28T02:53:20;100232.22;;;13.33;75.07
6144;BME280;3103;49.492;8.474;2023-04-28T02:55:48;100230.00;;;13.20;75.51
6144;BME280;3103;49.492;8.474;2023-04-28T02:58:15;100226.75;;;13.23;75.94
6144;BME280;3103;49.492;8.474;2023-04-28T03:00:44;100214.97;;;13.34;75.67
6144;BME280;3103;49.492;8.474;2023-04-28T03:03:12;100208.47;;;13.35;75.94
6144;BME280;3103;49.492;8.474;2023-04-28T03:05:39;100203.28;;;13.18;75.60
6144;BME280;3103;49.492;8.474;2023-04-28T03:08:06;100192.28;;;13.35;76.67
6144;BME280;3103;49.492;8.474;2023-04-28T03:10:33;100197.78;;;13.55;77.72
6144;BME280;3103;49.492;8.474;2023-04-28T03:13:02;100194.28;;;13.60;78.61
6144;BME280;3103;49.492;8.474;2023-04-28T03:15:29;100188.34;;;13.58;79.05
6144;BME280;3103;49.492;8.474;2023-04-28T03:17:56;100177.28;;;13.64;79.05
6144;BME280;3103;49.492;8.474;2023-04-28T03:20:23;100171.34;;;13.57;79.38
6144;BME280;3103;49.492;8.474;2023-04-28T03:22:50;100167.78;;;13.47;79.01
6144;BME280;3103;49.492;8.474;2023-04-28T03:25:17;100158.88;;;13.41;77.74
6144;BME280;3103;49.492;8.474;2023-04-28T03:27:50;100153.53;;;13.51;77.12
6144;BME280;3103;49.492;8.474;2023-04-28T03:30:17;100158.19;;;13.14;77.58
6144;BME280;3103;49.492;8.474;2023-04-28T03:32:45;100161.03;;;12.92;77.79
6144;BME280;3103;49.492;8.474;2023-04-28T03:35:12;100148.34;;;12.87;79.25
6144;BME280;3103;49.492;8.474;2023-04-28T03:37:40;100147.84;;;12.95;79.48
6144;BME280;3103;49.492;8.474;2023-04-28T03:40:07;100154.94;;;13.12;79.11
6144;BME280;3103;49.492;8.474;2023-04-28T03:42:54;100163.53;;;13.08;79.89
6144;BME280;3103;49.492;8.474;2023-04-28T03:45:34;100158.38;;;12.97;79.51
6144;BME280;3103;49.492;8.474;2023-04-28T03:48:01;100162.38;;;12.89;79.59
6144;BME280;3103;49.492;8.474;2023-04-28T03:50:28;100158.78;;;12.73;80.93
6144;BME280;3103;49.492;8.474;2023-04-28T03:52:55;100152.75;;;12.61;80.95
6144;BME280;3103;49.492;8.474;2023-04-28T03:55:23;100154.06;;;12.54;81.53
6144;BME280;3103;49.492;8.474;2023-04-28T03:57:51;100151.69;;;12.62;81.86
6144;BME280;3103;49.492;8.474;2023-04-28T04:00:18;100164.53;;;12.50;82.68
6144;BME280;3103;49.492;8.474;2023-04-28T04:02:47;100166.84;;;12.36;83.76
6144;BME280;3103;49.492;8.474;2023-04-28T04:05:15;100167.00;;;12.19;84.99
6144;BME280;3103;49.492;8.474;2023-04-28T04:07:42;100154.69;;;12.29;85.70
6144;BME280;3103;49.492;8.474;2023-04-28T04:10:09;100149.13;;;12.40;84.73
6144;BME280;3103;49.492;8.474;2023-04-28T04:12:39;100153.47;;;12.46;84.34
6144;BME280;3103;49.492;8.474;2023-04-28T04:15:06;100163.19;;;12.47;85.73
6144;BME280;3103;49.492;8.474;2023-04-28T04:17:33;100158.31;;;12.44;86.62
6144;BME280;3103;49.492;8.474;2023-04-28T04:20:00;100161.19;;;12.38;87.08
6144;BME280;3103;49.492;8.474;2023-04-28T04:22:29;100160.28;;;12.59;85.95
6144;BME280;3103;49.492;8.474;2023-04-28T04:24:56;100152.38;;;12.42;86.77
6144;BME280;3103;49.492;8.474;2023-04-28T04:27:24;100147.03;;;12.53;86.96
6144;BME280;3103;49.492;8.474;2023-04-28T04:29:51;100148.22;;;12.67;86.06
6144;BME280;3103;49.492;8.474;2023-04-28T04:32:18;100150.34;;;12.65;85.97
6144;BME280;3103;49.492;8.474;2023-04-28T04:34:45;100138.84;;;12.79;84.50
6144;BME280;3103;49.492;8.474;2023-04-28T04:37:12;100148.41;;;12.97;84.32
6144;BME280;3103;49.492;8.474;2023-04-28T04:39:45;100150.56;;;12.95;83.78
6144;BME280;3103;49.492;8.474;2023-04-28T04:42:13;100149.41;;;12.86;84.30
6144;BME280;3103;49.492;8.474;2023-04-28T04:45:09;100148.34;;;12.92;85.03
6144;BME280;3103;49.492;8.474;2023-04-28T04:47:36;100143.50;;;12.89;84.53
6144;BME280;3103;49.492;8.474;2023-04-28T04:50:03;100135.59;;;12.77;85.24
6144;BME280;3103;49.492;8.474;2023-04-28T04:52:30;100143.13;;;12.70;84.92
6144;BME280;3103;49.492;8.474;2023-04-28T04:54:58;100142.13;;;12.82;84.11
6144;BME280;3103;49.492;8.474;2023-04-28T04:57:25;100140.53;;;12.91;83.88
6144;BME280;3103;49.492;8.474;2023-04-28T05:00:05;100141.81;;;12.78;85.15
6144;BME280;3103;49.492;8.474;2023-04-28T05:02:33;100150.84;;;12.57;86.29
6144;BME280;3103;49.492;8.474;2023-04-28T05:05:02;100144.41;;;12.63;86.60
6144;BME280;3103;49.492;8.474;2023-04-28T05:07:48;100141.19;;;12.66;86.99
6144;BME280;3103;49.492;8.474;2023-04-28T05:10:15;100146.94;;;12.79;86.91
6144;BME280;3103;49.492;8.474;2023-04-28T05:12:42;100142.84;;;12.67;88.10
6144;BME280;3103;49.492;8.474;2023-04-28T05:15:13;100142.97;;;12.50;89.44
6144;BME280;3103;49.492;8.474;2023-04-28T05:17:47;100138.03;;;12.37;91.66
6144;BME280;3103;49.492;8.474;2023-04-28T05:20:14;100131.91;;;12.46;92.25
6144;BME280;3103;49.492;8.474;2023-04-28T05:22:41;100136.72;;;12.39;92.50
6144;BME280;3103;49.492;8.474;2023-04-28T05:25:08;100140.53;;;12.43;92.60
6144;BME280;3103;49.492;8.474;2023-04-28T05:27:35;100136.78;;;12.49;93.21
6144;BME280;3103;49.492;8.474;2023-04-28T05:30:08;100142.78;;;12.62;93.31
6144;BME280;3103;49.492;8.474;2023-04-28T05:32:37;100148.97;;;12.57;92.87
6144;BME280;3103;49.492;8.474;2023-04-28T05:35:05;100146.38;;;12.72;92.82
6144;BME280;3103;49.492;8.474;2023-04-28T05:37:32;100145.81;;;12.70;92.36
6144;BME280;3103;49.492;8.474;2023-04-28T05:39:59;100141.78;;;12.73;92.42
6144;BME280;3103;49.492;8.474;2023-04-28T05:42:26;100145.78;;;12.65;93.54
6144;BME280;3103;49.492;8.474;2023-04-28T05:44:52;100145.00;;;12.70;94.45
6144;BME280;3103;49.492;8.474;2023-04-28T05:47:20;100133.63;;;12.63;95.26
6144;BME280;3103;49.492;8.474;2023-04-28T05:49:46;100134.09;;;12.49;95.46
6144;BME280;3103;49.492;8.474;2023-04-28T05:52:13;100131.47;;;12.60;96.08
6144;BME280;3103;49.492;8.474;2023-04-28T05:54:40;100140.81;;;12.47;97.67
6144;BME280;3103;49.492;8.474;2023-04-28T05:57:07;100135.41;;;12.47;98.56
6144;BME280;3103;49.492;8.474;2023-04-28T05:59:34;100139.47;;;12.49;99.52
6144;BME280;3103;49.492;8.474;2023-04-28T06:02:01;100139.41;;;12.39;100.00
6144;BME280;3103;49.492;8.474;2023-04-28T06:04:28;100155.00;;;12.37;100.00
6144;BME280;3103;49.492;8.474;2023-04-28T06:06:56;100159.81;;;12.30;100.00
6144;BME280;3103;49.492;8.474;2023-04-28T06:09:23;100165.00;;;12.10;100.00
6144;BME280;3103;49.492;8.474;2023-04-28T06:11:52;100167.78;;;12.15;100.00
6144;BME280;3103;49.492;8.474;2023-04-28T06:14:18;100171.13;;;12.00;100.00
6144;BME280;3103;49.492;8.474;2023-04-28T06:16:46;100174.91;;;11.99;100.00
6144;BME280;3103;49.492;8.474;2023-04-28T06:19:13;100172.63;;;11.86;100.00
6144;BME280;3103;49.492;8.474;2023-04-28T06:21:41;100160.66;;;12.04;100.00
6144;BME280;3103;49.492;8.474;2023-04-28T06:24:08;100156.56;;;12.28;100.00
6144;BME280;3103;49.492;8.474;2023-04-28T06:26:35;100153.50;;;12.52;100.00
6144;BME280;3103;49.492;8.474;2023-04-28T06:29:02;100155.34;;;12.46;100.00
6144;BME280;3103;49.492;8.474;2023-04-28T06:31:29;100164.97;;;12.37;100.00
6144;BME280;3103;49.492;8.474;2023-04-28T06:33:56;100155.69;;;12.23;100.00
6144;BME280;3103;49.492;8.474;2023-04-28T06:36:23;100146.31;;;12.25;100.00
6144;BME280;3103;49.492;8.474;2023-04-28T06:38:50;100143.63;;;12.25;100.00
6144;BME280;3103;49.492;8.474;2023-04-28T06:41:17;100140.22;;;12.40;100.00
6144;BME280;3103;49.492;8.474;2023-04-28T06:43:47;100140.81;;;12.47;100.00
6144;BME280;3103;49.492;8.474;2023-04-28T06:46:19;100140.00;;;12.46;100.00
6144;BME280;3103;49.492;8.474;2023-04-28T06:48:46;100149.19;;;12.51;100.00
6144;BME280;3103;49.492;8.474;2023-04-28T06:51:15;100150.88;;;12.62;100.00
6144;BME280;3103;49.492;8.474;2023-04-28T06:53:42;100157.53;;;12.49;100.00
6144;BME280;3103;49.492;8.474;2023-04-28T06:56:09;100153.19;;;12.43;100.00
6144;BME280;3103;49.492;8.474;2023-04-28T06:58:37;100155.16;;;12.58;100.00
6144;BME280;3103;49.492;8.474;2023-04-28T07:01:04;100162.25;;;12.69;100.00
6144;BME280;3103;49.492;8.474;2023-04-28T07:03:31;100143.78;;;12.51;100.00
6144;BME280;3103;49.492;8.474;2023-04-28T07:05:58;100139.44;;;12.44;100.00
6144;BME280;3103;49.492;8.474;2023-04-28T07:08:25;100143.06;;;12.60;100.00
6144;BME280;3103;49.492;8.474;2023-04-28T07:10:52;100137.66;;;12.60;100.00
6144;BME280;3103;49.492;8.474;2023-04-28T07:13:18;100139.28;;;12.61;100.00
6144;BME280;3103;49.492;8.474;2023-04-28T07:15:45;100150.44;;;12.75;100.00
6144;BME280;3103;49.492;8.474;2023-04-28T07:18:12;100135.13;;;12.86;100.00
6144;BME280;3103;49.492;8.474;2023-04-28T07:20:39;100145.44;;;12.99;100.00
6144;BME280;3103;49.492;8.474;2023-04-28T07:23:06;100147.81;;;12.90;100.00
6144;BME280;3103;49.492;8.474;2023-04-28T07:25:32;100140.78;;;12.84;100.00
6144;BME280;3103;49.492;8.474;2023-04-28T07:28:02;100131.16;;;13.03;100.00
6144;BME280;3103;49.492;8.474;2023-04-28T07:30:29;100144.66;;;13.08;100.00
6144;BME280;3103;49.492;8.474;2023-04-28T07:32:55;100141.41;;;13.06;100.00
6144;BME280;3103;49.492;8.474;2023-04-28T07:35:23;100146.53;;;13.03;100.00
6144;BME280;3103;49.492;8.474;2023-04-28T07:37:50;100140.72;;;12.79;100.00
6144;BME280;3103;49.492;8.474;2023-04-28T07:40:17;100129.47;;;12.87;100.00
6144;BME280;3103;49.492;8.474;2023-04-28T07:42:45;100116.00;;;12.92;100.00
6144;BME280;3103;49.492;8.474;2023-04-28T07:45:13;100111.69;;;12.91;100.00
6144;BME280;3103;49.492;8.474;2023-04-28T07:47:41;100111.53;;;13.13;100.00
6144;BME280;3103;49.492;8.474;2023-04-28T07:50:10;100120.97;;;13.16;100.00
6144;BME280;3103;49.492;8.474;2023-04-28T07:52:37;100129.53;;;13.02;100.00
6144;BME280;3103;49.492;8.474;2023-04-28T07:55:04;100131.28;;;12.76;100.00
6144;BME280;3103;49.492;8.474;2023-04-28T07:57:31;100138.28;;;12.72;100.00
6144;BME280;3103;49.492;8.474;2023-04-28T07:59:58;100127.56;;;12.83;100.00
6144;BME280;3103;49.492;8.474;2023-04-28T08:02:24;100124.69;;;12.99;100.00
6144;BME280;3103;49.492;8.474;2023-04-28T08:04:53;100120.38;;;13.03;100.00
6144;BME280;3103;49.492;8.474;2023-04-28T08:07:20;100119.88;;;13.12;100.00
6144;BME280;3103;49.492;8.474;2023-04-28T08:09:46;100116.66;;;13.15;100.00
6144;BME280;3103;49.492;8.474;2023-04-28T08:12:13;100110.00;;;13.27;100.00
6144;BME280;3103;49.492;8.474;2023-04-28T08:14:41;100114.56;;;13.27;100.00
6144;BME280;3103;49.492;8.474;2023-04-28T08:17:08;100132.31;;;13.18;100.00
6144;BME280;3103;49.492;8.474;2023-04-28T08:19:35;100124.78;;;13.20;100.00
6144;BME280;3103;49.492;8.474;2023-04-28T08:22:02;100122.41;;;13.33;100.00
6144;BME280;3103;49.492;8.474;2023-04-28T08:24:32;100115.13;;;13.34;100.00
6144;BME280;3103;49.492;8.474;2023-04-28T08:27:02;100122.69;;;13.37;100.00
6144;BME280;3103;49.492;8.474;2023-04-28T08:29:30;100130.84;;;13.57;100.00
6144;BME280;3103;49.492;8.474;2023-04-28T08:31:57;100136.78;;;13.64;100.00
6144;BME280;3103;49.492;8.474;2023-04-28T08:34:24;100136.22;;;13.42;100.00
6144;BME280;3103;49.492;8.474;2023-04-28T08:36:51;100135.66;;;13.40;100.00
6144;BME280;3103;49.492;8.474;2023-04-28T08:39:18;100130.81;;;13.47;100.00
6144;BME280;3103;49.492;8.474;2023-04-28T08:41:49;100140.31;;;13.70;100.00
6144;BME280;3103;49.492;8.474;2023-04-28T08:44:17;100136.25;;;13.62;100.00
6144;BME280;3103;49.492;8.474;2023-04-28T08:46:45;100128.19;;;13.78;100.00
6144;BME280;3103;49.492;8.474;2023-04-28T08:49:16;100124.66;;;13.77;100.00
6144;BME280;3103;49.492;8.474;2023-04-28T08:51:45;100129.84;;;13.94;100.00
6144;BME280;3103;49.492;8.474;2023-04-28T08:54:14;100131.47;;;14.10;100.00
6144;BME280;3103;49.492;8.474;2023-04-28T08:56:52;100135.78;;;14.32;100.00
6144;BME280;3103;49.492;8.474;2023-04-28T08:59:19;100125.78;;;14.27;100.00
6144;BME280;3103;49.492;8.474;2023-04-28T09:01:49;100131.97;;;14.07;100.00
6144;BME280;3103;49.492;8.474;2023-04-28T09:04:16;100129.28;;;13.87;100.00
6144;BME280;3103;49.492;8.474;2023-04-28T09:06:45;100141.13;;;13.76;100.00
6144;BME280;3103;49.492;8.474;2023-04-28T09:09:25;100137.94;;;13.94;100.00
6144;BME280;3103;49.492;8.474;2023-04-28T09:11:58;100149.81;;;13.98;100.00
6144;BME280;3103;49.492;8.474;2023-04-28T09:14:30;100143.31;;;13.89;100.00
6144;BME280;3103;49.492;8.474;2023-04-28T09:17:02;100140.09;;;13.87;100.00
6144;BME280;3103;49.492;8.474;2023-04-28T09:19:33;100145.50;;;13.97;100.00
6144;BME280;3103;49.492;8.474;2023-04-28T09:22:00;100157.38;;;14.06;100.00
6144;BME280;3103;49.492;8.474;2023-04-28T09:24:40;100151.69;;;13.82;100.00
6144;BME280;3103;49.492;8.474;2023-04-28T09:27:09;100139.53;;;13.80;100.00
6144;BME280;3103;49.492;8.474;2023-04-28T09:29:38;100139.00;;;13.88;100.00
6144;BME280;3103;49.492;8.474;2023-04-28T09:37:20;100135.25;;;14.09;100.00
6144;BME280;3103;49.492;8.474;2023-04-28T09:39:49;100144.44;;;14.29;100.00
6144;BME280;3103;49.492;8.474;2023-04-28T09:42:36;100150.38;;;14.56;100.00
6144;BME280;3103;49.492;8.474;2023-04-28T09:45:04;100145.78;;;14.46;100.00
6144;BME280;3103;49.492;8.474;2023-04-28T09:47:37;100150.66;;;14.14;100.00
6144;BME280;3103;49.492;8.474;2023-04-28T09:50:06;100150.63;;;14.29;100.00
6144;BME280;3103;49.492;8.474;2023-04-28T09:52:37;100154.41;;;14.03;100.00
6144;BME280;3103;49.492;8.474;2023-04-28T09:55:05;100147.66;;;14.15;100.00
6144;BME280;3103;49.492;8.474;2023-04-28T09:57:35;100145.50;;;14.07;100.00
6144;BME280;3103;49.492;8.474;2023-04-28T10:00:04;100139.56;;;14.20;100.00
6144;BME280;3103;49.492;8.474;2023-04-28T10:02:37;100149.28;;;14.21;100.00
6144;BME280;3103;49.492;8.474;2023-04-28T10:05:07;100151.19;;;14.31;100.00
6144;BME280;3103;49.492;8.474;2023-04-28T10:07:36;100149.84;;;14.23;100.00
6144;BME280;3103;49.492;8.474;2023-04-28T10:10:06;100152.81;;;14.32;100.00
6144;BME280;3103;49.492;8.474;2023-04-28T10:12:33;100149.31;;;14.52;100.00
6144;BME280;3103;49.492;8.474;2023-04-28T10:15:00;100144.16;;;14.40;100.00
6144;BME280;3103;49.492;8.474;2023-04-28T10:17:32;100150.94;;;14.53;100.00
6144;BME280;3103;49.492;8.474;2023-04-28T10:20:00;100149.28;;;14.32;100.00
6144;BME280;3103;49.492;8.474;2023-04-28T10:23:02;100155.25;;;14.39;100.00
6144;BME280;3103;49.492;8.474;2023-04-28T10:25:36;100161.19;;;14.31;100.00
6144;BME280;3103;49.492;8.474;2023-04-28T10:28:07;100160.13;;;14.37;100.00
6144;BME280;3103;49.492;8.474;2023-04-28T10:30:35;100163.91;;;14.46;100.00
6144;BME280;3103;49.492;8.474;2023-04-28T10:35:41;100158.78;;;14.54;100.00
6144;BME280;3103;49.492;8.474;2023-04-28T10:38:10;100152.00;;;14.42;100.00
6144;BME280;3103;49.492;8.474;2023-04-28T10:40:39;100152.03;;;14.52;100.00
6144;BME280;3103;49.492;8.474;2023-04-28T10:43:08;100145.25;;;14.65;100.00
6144;BME280;3103;49.492;8.474;2023-04-28T10:56:11;100143.03;;;14.77;100.00
6144;BME280;3103;49.492;8.474;2023-04-28T10:58:39;100147.63;;;14.87;100.00
6144;BME280;3103;49.492;8.474;2023-04-28T11:01:23;100144.91;;;14.87;100.00
6144;BME280;3103;49.492;8.474;2023-04-28T11:03:52;100145.44;;;14.94;100.00
6144;BME280;3103;49.492;8.474;2023-04-28T11:06:43;100138.13;;;14.89;100.00
6144;BME280;3103;49.492;8.474;2023-04-28T11:11:38;100130.81;;;15.00;100.00
6144;BME280;3103;49.492;8.474;2023-04-28T11:16:53;100135.81;;;15.37;100.00
6144;BME280;3103;49.492;8.474;2023-04-28T11:19:24;100137.22;;;15.24;100.00
6144;BME280;3103;49.492;8.474;2023-04-28T11:21:53;100128.03;;;15.20;100.00
6144;BME280;3103;49.492;8.474;2023-04-28T11:24:25;100130.19;;;15.23;100.00
6144;BME280;3103;49.492;8.474;2023-04-28T11:26:52;100131.28;;;15.17;100.00
6144;BME280;3103;49.492;8.474;2023-04-28T11:29:36;100124.03;;;15.07;100.00
6144;BME280;3103;49.492;8.474;2023-04-28T11:32:05;100131.31;;;15.12;100.00
6144;BME280;3103;49.492;8.474;2023-04-28T11:34:33;100131.28;;;15.17;100.00
6144;BME280;3103;49.492;8.474;2023-04-28T11:37:00;100131.84;;;15.14;100.00
6144;BME280;3103;49.492;8.474;2023-04-28T11:39:29;100137.50;;;15.23;100.00
6144;BME280;3103;49.492;8.474;2023-04-28T11:41:57;100150.00;;;15.08;100.00
6144;BME280;3103;49.492;8.474;2023-04-28T11:44:27;100135.66;;;15.08;100.00
6144;BME280;3103;49.492;8.474;2023-04-28T11:46:55;100112.38;;;15.12;100.00
6144;BME280;3103;49.492;8.474;2023-04-28T11:49:23;100129.66;;;15.16;100.00
6144;BME280;3103;49.492;8.474;2023-04-28T11:51:50;100131.25;;;15.27;100.00
6144;BME280;3103;49.492;8.474;2023-04-28T11:54:23;100124.28;;;15.11;100.00
6144;BME280;3103;49.492;8.474;2023-04-28T11:56:52;100126.13;;;15.26;100.00
6144;BME280;3103;49.492;8.474;2023-04-28T11:59:26;100134.00;;;15.22;100.00
6144;BME280;3103;49.492;8.474;2023-04-28T12:04:30;100132.69;;;15.09;100.00
6144;BME280;3103;49.492;8.474;2023-04-28T12:07:08;100128.56;;;15.17;100.00
6144;BME280;3103;49.492;8.474;2023-04-28T12:09:43;100126.75;;;15.07;100.00
6144;BME280;3103;49.492;8.474;2023-04-28T12:12:12;100147.28;;;15.13;100.00
6144;BME280;3103;49.492;8.474;2023-04-28T12:14:59;100164.06;;;15.10;100.00
6144;BME280;3103;49.492;8.474;2023-04-28T12:17:35;100142.41;;;15.10;100.00
6144;BME280;3103;49.492;8.474;2023-04-28T12:20:06;100139.47;;;15.07;100.00
6144;BME280;3103;49.492;8.474;2023-04-28T12:22:47;100128.38;;;14.98;100.00
6144;BME280;3103;49.492;8.474;2023-04-28T12:25:18;100125.13;;;15.06;100.00
6144;BME280;3103;49.492;8.474;2023-04-28T12:28:03;100122.88;;;15.19;100.00
6144;BME280;3103;49.492;8.474;2023-04-28T12:30:35;100117.16;;;15.30;100.00
6144;BME280;3103;49.492;8.474;2023-04-28T12:33:24;100120.94;;;15.34;100.00
6144;BME280;3103;49.492;8.474;2023-04-28T12:35:51;100122.03;;;15.28;100.00
6144;BME280;3103;49.492;8.474;2023-04-28T12:38:20;100135.53;;;15.33;100.00
6144;BME280;3103;49.492;8.474;2023-04-28T12:40:47;100125.72;;;15.48;100.00
6144;BME280;3103;49.492;8.474;2023-04-28T12:43:13;100130.84;;;15.59;100.00
6144;BME280;3103;49.492;8.474;2023-04-28T12:45:41;100139.16;;;15.73;100.00
6144;BME280;3103;49.492;8.474;2023-04-28T12:48:08;100141.03;;;15.72;100.00
6144;BME280;3103;49.492;8.474;2023-04-28T12:50:35;100133.16;;;15.76;100.00
6144;BME280;3103;49.492;8.474;2023-04-28T12:53:01;100139.47;;;15.66;100.00
6144;BME280;3103;49.492;8.474;2023-04-28T12:55:28;100137.16;;;15.89;100.00
6144;BME280;3103;49.492;8.474;2023-04-28T12:57:55;100130.44;;;15.76;100.00
6144;BME280;3103;49.492;8.474;2023-04-28T13:00:22;100138.09;;;15.69;100.00
6144;BME280;3103;49.492;8.474;2023-04-28T13:02:50;100135.28;;;15.84;100.00
6144;BME280;3103;49.492;8.474;2023-04-28T13:05:18;100131.91;;;16.02;100.00
6144;BME280;3103;49.492;8.474;2023-04-28T13:07:45;100118.84;;;16.10;100.00
6144;BME280;3103;49.492;8.474;2023-04-28T13:10:13;100121.56;;;16.10;100.00
6144;BME280;3103;49.492;8.474;2023-04-28T13:12:40;100116.59;;;16.17;100.00
6144;BME280;3103;49.492;8.474;2023-04-28T13:15:07;100119.91;;;16.14;100.00
6144;BME280;3103;49.492;8.474;2023-04-28T13:17:34;100126.56;;;16.26;100.00
6144;BME280;3103;49.492;8.474;2023-04-28T13:20:01;100126.97;;;16.10;100.00
6144;BME280;3103;49.492;8.474;2023-04-28T13:22:33;100111.25;;;16.12;100.00
6144;BME280;3103;49.492;8.474;2023-04-28T13:24:59;100117.81;;;16.06;100.00
6144;BME280;3103;49.492;8.474;2023-04-28T13:27:26;100120.88;;;15.94;100.00
6144;BME280;3103;49.492;8.474;2023-04-28T13:29:55;100106.81;;;15.87;100.00
6144;BME280;3103;49.492;8.474;2023-04-28T13:32:24;100098.34;;;15.98;100.00
6144;BME280;3103;49.492;8.474;2023-04-28T13:34:51;100099.31;;;16.13;100.00
6144;BME280;3103;49.492;8.474;2023-04-28T13:37:18;100101.13;;;16.22;100.00
6144;BME280;3103;49.492;8.474;2023-04-28T13:39:45;100090.56;;;16.21;100.00